sensor_id;sensor_type;location;lat;lon;timestamp;P1;durP1;ratioP1;P2;durP2;ratioP2
17917;SDS011;9084;50.956;3.106;2023-08-06T00:02:06;4.15;;;0.90;;
17917;SDS011;9084;50.956;3.106;2023-08-06T00:04:32;2.83;;;1.13;;
17917;SDS011;9084;50.956;3.106;2023-08-06T00:06:57;3.17;;;0.85;;
17917;SDS011;9084;50.956;3.106;2023-08-06T00:09:23;4.65;;;1.00;;
17917;SDS011;9084;50.956;3.106;2023-08-06T00:11:48;3.25;;;0.73;;
17917;SDS011;9084;50.956;3.106;2023-08-06T00:14:17;3.80;;;1.33;;
17917;SDS011;9084;50.956;3.106;2023-08-06T00:16:43;4.20;;;0.82;;
17917;SDS011;9084;50.956;3.106;2023-08-06T00:19:09;3.97;;;0.75;;
17917;SDS011;9084;50.956;3.106;2023-08-06T00:21:35;1.63;;;0.90;;
17917;SDS011;9084;50.956;3.106;2023-08-06T00:24:01;3.45;;;0.90;;
17917;SDS011;9084;50.956;3.106;2023-08-06T00:26:29;4.20;;;1.05;;
17917;SDS011;9084;50.956;3.106;2023-08-06T00:28:57;3.50;;;0.70;;
17917;SDS011;9084;50.956;3.106;2023-08-06T00:31:25;2.95;;;0.90;;
17917;SDS011;9084;50.956;3.106;2023-08-06T00:33:53;3.65;;;0.82;;
17917;SDS011;9084;50.956;3.106;2023-08-06T00:36:18;3.55;;;0.82;;
17917;SDS011;9084;50.956;3.106;2023-08-06T00:38:46;2.50;;;1.10;;
17917;SDS011;9084;50.956;3.106;2023-08-06T00:41:14;2.90;;;0.98;;
17917;SDS011;9084;50.956;3.106;2023-08-06T00:43:40;3.30;;;1.00;;
17917;SDS011;9084;50.956;3.106;2023-08-06T00:46:08;4.63;;;1.13;;
17917;SDS011;9084;50.956;3.106;2023-08-06T00:48:34;6.13;;;1.27;;
17917;SDS011;9084;50.956;3.106;2023-08-06T00:51:02;2.72;;;1.13;;
17917;SDS011;9084;50.956;3.106;2023-08-06T00:53:28;3.20;;;1.15;;
17917;SDS011;9084;50.956;3.106;2023-08-06T00:55:56;3.72;;;1.17;;
17917;SDS011;9084;50.956;3.106;2023-08-06T00:58:23;3.00;;;1.25;;
17917;SDS011;9084;50.956;3.106;2023-08-06T01:00:48;2.38;;;0.90;;
17917;SDS011;9084;50.956;3.106;2023-08-06T01:03:14;3.28;;;0.90;;
17917;SDS011;9084;50.956;3.106;2023-08-06T01:05:40;3.17;;;1.10;;
17917;SDS011;9084;50.956;3.106;2023-08-06T01:08:19;4.72;;;1.20;;
17917;SDS011;9084;50.956;3.106;2023-08-06T01:14:02;4.47;;;2.03;;
17917;SDS011;9084;50.956;3.106;2023-08-06T01:16:36;3.25;;;2.00;;
17917;SDS011;9084;50.956;3.106;2023-08-06T01:19:04;5.70;;;2.78;;
17917;SDS011;9084;50.956;3.106;2023-08-06T01:21:30;4.70;;;3.20;;
17917;SDS011;9084;50.956;3.106;2023-08-06T01:23:55;5.93;;;3.22;;
17917;SDS011;9084;50.956;3.106;2023-08-06T01:31:50;4.53;;;2.83;;
17917;SDS011;9084;50.956;3.106;2023-08-06T01:34:20;4.47;;;2.80;;
17917;SDS011;9084;50.956;3.106;2023-08-06T01:36:50;5.03;;;2.70;;
17917;SDS011;9084;50.956;3.106;2023-08-06T01:39:17;6.60;;;2.33;;
17917;SDS011;9084;50.956;3.106;2023-08-06T01:41:46;5.95;;;2.40;;
17917;SDS011;9084;50.956;3.106;2023-08-06T01:44:15;6.20;;;2.45;;
17917;SDS011;9084;50.956;3.106;2023-08-06T01:46:41;5.38;;;2.40;;
17917;SDS011;9084;50.956;3.106;2023-08-06T01:49:06;7.68;;;2.33;;
17917;SDS011;9084;50.956;3.106;2023-08-06T01:51:32;4.75;;;2.05;;
17917;SDS011;9084;50.956;3.106;2023-08-06T01:53:58;4.07;;;2.30;;
17917;SDS011;9084;50.956;3.106;2023-08-06T01:56:24;4.57;;;2.30;;
17917;SDS011;9084;50.956;3.106;2023-08-06T01:58:49;8.18;;;3.00;;
17917;SDS011;9084;50.956;3.106;2023-08-06T02:01:15;4.70;;;2.50;;
17917;SDS011;9084;50.956;3.106;2023-08-06T02:03:41;4.70;;;2.15;;
17917;SDS011;9084;50.956;3.106;2023-08-06T02:06:07;4.45;;;2.55;;
17917;SDS011;9084;50.956;3.106;2023-08-06T02:08:35;5.30;;;2.63;;
17917;SDS011;9084;50.956;3.106;2023-08-06T02:11:00;7.25;;;2.88;;
17917;SDS011;9084;50.956;3.106;2023-08-06T02:13:27;5.28;;;2.55;;
17917;SDS011;9084;50.956;3.106;2023-08-06T02:15:53;8.55;;;3.80;;
17917;SDS011;9084;50.956;3.106;2023-08-06T02:18:18;7.72;;;3.60;;
17917;SDS011;9084;50.956;3.106;2023-08-06T02:20:44;8.52;;;3.97;;
17917;SDS011;9084;50.956;3.106;2023-08-06T02:23:21;10.07;;;3.40;;
17917;SDS011;9084;50.956;3.106;2023-08-06T02:25:47;7.90;;;3.78;;
17917;SDS011;9084;50.956;3.106;2023-08-06T02:28:14;8.43;;;4.43;;
17917;SDS011;9084;50.956;3.106;2023-08-06T02:30:48;11.38;;;3.58;;
17917;SDS011;9084;50.956;3.106;2023-08-06T02:33:15;9.15;;;3.78;;
17917;SDS011;9084;50.956;3.106;2023-08-06T02:35:40;6.45;;;3.15;;
17917;SDS011;9084;50.956;3.106;2023-08-06T02:38:09;7.00;;;3.22;;
17917;SDS011;9084;50.956;3.106;2023-08-06T02:40:36;10.20;;;3.50;;
17917;SDS011;9084;50.956;3.106;2023-08-06T02:43:13;10.38;;;3.42;;
17917;SDS011;9084;50.956;3.106;2023-08-06T02:45:39;6.13;;;2.95;;
17917;SDS011;9084;50.956;3.106;2023-08-06T02:48:05;5.85;;;2.70;;
17917;SDS011;9084;50.956;3.106;2023-08-06T02:50:41;6.97;;;2.88;;
17917;SDS011;9084;50.956;3.106;2023-08-06T02:53:07;6.60;;;3.30;;
17917;SDS011;9084;50.956;3.106;2023-08-06T02:55:33;7.85;;;2.85;;
17917;SDS011;9084;50.956;3.106;2023-08-06T02:58:03;7.40;;;2.90;;
17917;SDS011;9084;50.956;3.106;2023-08-06T03:00:28;10.88;;;2.78;;
17917;SDS011;9084;50.956;3.106;2023-08-06T03:02:54;10.90;;;3.50;;
17917;SDS011;9084;50.956;3.106;2023-08-06T03:05:20;9.30;;;3.33;;
17917;SDS011;9084;50.956;3.106;2023-08-06T03:07:45;5.32;;;3.05;;
17917;SDS011;9084;50.956;3.106;2023-08-06T03:10:11;7.82;;;3.08;;
17917;SDS011;9084;50.956;3.106;2023-08-06T03:12:40;7.68;;;3.58;;
17917;SDS011;9084;50.956;3.106;2023-08-06T03:15:08;8.15;;;2.90;;
17917;SDS011;9084;50.956;3.106;2023-08-06T03:17:37;6.95;;;3.30;;
17917;SDS011;9084;50.956;3.106;2023-08-06T03:20:03;6.88;;;3.03;;
17917;SDS011;9084;50.956;3.106;2023-08-06T03:22:30;6.20;;;2.97;;
17917;SDS011;9084;50.956;3.106;2023-08-06T03:24:55;8.68;;;3.42;;
17917;SDS011;9084;50.956;3.106;2023-08-06T03:27:21;7.82;;;3.60;;
17917;SDS011;9084;50.956;3.106;2023-08-06T03:29:48;6.53;;;3.63;;
17917;SDS011;9084;50.956;3.106;2023-08-06T03:32:17;9.00;;;3.28;;
17917;SDS011;9084;50.956;3.106;2023-08-06T03:34:45;8.43;;;3.80;;
17917;SDS011;9084;50.956;3.106;2023-08-06T03:37:11;9.50;;;3.83;;
17917;SDS011;9084;50.956;3.106;2023-08-06T03:39:36;5.40;;;3.10;;
17917;SDS011;9084;50.956;3.106;2023-08-06T03:42:02;8.18;;;2.92;;
17917;SDS011;9084;50.956;3.106;2023-08-06T03:44:32;6.30;;;3.25;;
17917;SDS011;9084;50.956;3.106;2023-08-06T03:46:58;7.20;;;3.70;;
17917;SDS011;9084;50.956;3.106;2023-08-06T03:49:24;8.27;;;3.90;;
17917;SDS011;9084;50.956;3.106;2023-08-06T03:51:49;7.97;;;3.88;;
17917;SDS011;9084;50.956;3.106;2023-08-06T03:54:19;5.80;;;3.30;;
17917;SDS011;9084;50.956;3.106;2023-08-06T03:56:47;7.25;;;3.20;;
17917;SDS011;9084;50.956;3.106;2023-08-06T03:59:13;5.72;;;3.63;;
17917;SDS011;9084;50.956;3.106;2023-08-06T04:01:40;6.78;;;3.42;;
17917;SDS011;9084;50.956;3.106;2023-08-06T04:04:06;8.52;;;4.07;;
17917;SDS011;9084;50.956;3.106;2023-08-06T04:06:32;6.63;;;3.45;;
17917;SDS011;9084;50.956;3.106;2023-08-06T04:09:02;5.88;;;2.95;;
17917;SDS011;9084;50.956;3.106;2023-08-06T04:11:30;6.82;;;3.67;;
17917;SDS011;9084;50.956;3.106;2023-08-06T04:13:58;4.85;;;3.00;;
17917;SDS011;9084;50.956;3.106;2023-08-06T04:16:26;6.13;;;3.65;;
17917;SDS011;9084;50.956;3.106;2023-08-06T04:18:51;7.05;;;3.15;;
17917;SDS011;9084;50.956;3.106;2023-08-06T04:21:18;3.75;;;3.10;;
17917;SDS011;9084;50.956;3.106;2023-08-06T04:23:44;4.38;;;2.70;;
17917;SDS011;9084;50.956;3.106;2023-08-06T04:26:10;4.95;;;2.85;;
17917;SDS011;9084;50.956;3.106;2023-08-06T04:28:35;4.70;;;2.92;;
17917;SDS011;9084;50.956;3.106;2023-08-06T04:31:01;5.72;;;2.47;;
17917;SDS011;9084;50.956;3.106;2023-08-06T04:33:27;4.65;;;2.80;;
17917;SDS011;9084;50.956;3.106;2023-08-06T04:35:55;7.35;;;3.00;;
17917;SDS011;9084;50.956;3.106;2023-08-06T04:38:23;6.63;;;3.30;;
17917;SDS011;9084;50.956;3.106;2023-08-06T04:40:52;5.50;;;3.28;;
17917;SDS011;9084;50.956;3.106;2023-08-06T04:43:18;6.20;;;3.17;;
17917;SDS011;9084;50.956;3.106;2023-08-06T04:45:50;3.38;;;2.42;;
17917;SDS011;9084;50.956;3.106;2023-08-06T04:48:19;3.53;;;2.63;;
17917;SDS011;9084;50.956;3.106;2023-08-06T04:50:48;5.72;;;3.08;;
17917;SDS011;9084;50.956;3.106;2023-08-06T04:53:17;4.97;;;2.67;;
17917;SDS011;9084;50.956;3.106;2023-08-06T04:55:43;2.97;;;2.00;;
17917;SDS011;9084;50.956;3.106;2023-08-06T04:58:09;4.28;;;1.83;;
17917;SDS011;9084;50.956;3.106;2023-08-06T05:00:35;4.95;;;1.95;;
17917;SDS011;9084;50.956;3.106;2023-08-06T05:03:01;5.30;;;2.25;;
17917;SDS011;9084;50.956;3.106;2023-08-06T05:05:30;6.32;;;1.65;;
17917;SDS011;9084;50.956;3.106;2023-08-06T05:07:58;5.68;;;1.98;;
17917;SDS011;9084;50.956;3.106;2023-08-06T05:10:26;4.50;;;1.90;;
17917;SDS011;9084;50.956;3.106;2023-08-06T05:12:52;4.65;;;1.45;;
17917;SDS011;9084;50.956;3.106;2023-08-06T05:15:18;6.80;;;2.10;;
17917;SDS011;9084;50.956;3.106;2023-08-06T05:17:44;5.30;;;1.40;;
17917;SDS011;9084;50.956;3.106;2023-08-06T05:20:10;6.38;;;1.92;;
17917;SDS011;9084;50.956;3.106;2023-08-06T05:22:36;4.72;;;1.20;;
17917;SDS011;9084;50.956;3.106;2023-08-06T05:25:04;2.80;;;1.30;;
17917;SDS011;9084;50.956;3.106;2023-08-06T05:27:31;4.07;;;1.60;;
17917;SDS011;9084;50.956;3.106;2023-08-06T05:29:57;4.45;;;1.65;;
17917;SDS011;9084;50.956;3.106;2023-08-06T05:32:22;6.07;;;1.80;;
17917;SDS011;9084;50.956;3.106;2023-08-06T05:34:48;4.43;;;1.33;;
17917;SDS011;9084;50.956;3.106;2023-08-06T05:37:14;4.38;;;1.52;;
17917;SDS011;9084;50.956;3.106;2023-08-06T05:39:39;6.00;;;1.77;;
17917;SDS011;9084;50.956;3.106;2023-08-06T05:42:05;6.28;;;1.92;;
17917;SDS011;9084;50.956;3.106;2023-08-06T05:44:33;6.88;;;2.08;;
17917;SDS011;9084;50.956;3.106;2023-08-06T05:46:59;7.07;;;2.25;;
17917;SDS011;9084;50.956;3.106;2023-08-06T05:49:25;7.38;;;2.13;;
17917;SDS011;9084;50.956;3.106;2023-08-06T05:51:53;7.18;;;2.25;;
17917;SDS011;9084;50.956;3.106;2023-08-06T05:54:19;4.32;;;2.20;;
17917;SDS011;9084;50.956;3.106;2023-08-06T05:56:47;7.18;;;2.25;;
17917;SDS011;9084;50.956;3.106;2023-08-06T05:59:12;4.85;;;2.13;;
17917;SDS011;9084;50.956;3.106;2023-08-06T06:01:40;7.07;;;2.75;;
17917;SDS011;9084;50.956;3.106;2023-08-06T06:04:08;5.63;;;2.47;;
17917;SDS011;9084;50.956;3.106;2023-08-06T06:06:34;5.63;;;2.47;;
17917;SDS011;9084;50.956;3.106;2023-08-06T06:09:02;6.47;;;2.17;;
17917;SDS011;9084;50.956;3.106;2023-08-06T06:11:27;5.82;;;2.72;;
17917;SDS011;9084;50.956;3.106;2023-08-06T06:13:55;7.30;;;3.00;;
17917;SDS011;9084;50.956;3.106;2023-08-06T06:16:21;6.82;;;2.60;;
17917;SDS011;9084;50.956;3.106;2023-08-06T06:18:46;8.45;;;2.42;;
17917;SDS011;9084;50.956;3.106;2023-08-06T06:21:12;5.38;;;2.53;;
17917;SDS011;9084;50.956;3.106;2023-08-06T06:23:38;7.55;;;2.10;;
17917;SDS011;9084;50.956;3.106;2023-08-06T06:26:03;7.18;;;2.53;;
17917;SDS011;9084;50.956;3.106;2023-08-06T06:28:29;5.55;;;2.40;;
17917;SDS011;9084;50.956;3.106;2023-08-06T06:30:59;4.63;;;1.90;;
17917;SDS011;9084;50.956;3.106;2023-08-06T06:33:32;4.40;;;1.63;;
17917;SDS011;9084;50.956;3.106;2023-08-06T06:35:58;5.20;;;1.95;;
17917;SDS011;9084;50.956;3.106;2023-08-06T06:38:28;5.05;;;1.95;;
17917;SDS011;9084;50.956;3.106;2023-08-06T06:40:54;5.47;;;1.80;;
17917;SDS011;9084;50.956;3.106;2023-08-06T06:43:25;7.10;;;2.22;;
17917;SDS011;9084;50.956;3.106;2023-08-06T06:45:57;2.63;;;1.90;;
17917;SDS011;9084;50.956;3.106;2023-08-06T06:48:27;7.75;;;1.58;;
17917;SDS011;9084;50.956;3.106;2023-08-06T06:50:56;3.75;;;1.35;;
17917;SDS011;9084;50.956;3.106;2023-08-06T06:53:22;4.38;;;1.73;;
17917;SDS011;9084;50.956;3.106;2023-08-06T06:55:52;3.28;;;1.45;;
17917;SDS011;9084;50.956;3.106;2023-08-06T06:58:26;4.28;;;1.73;;
17917;SDS011;9084;50.956;3.106;2023-08-06T07:00:54;5.57;;;1.63;;
17917;SDS011;9084;50.956;3.106;2023-08-06T07:03:20;9.48;;;1.50;;
17917;SDS011;9084;50.956;3.106;2023-08-06T07:05:46;5.70;;;1.50;;
17917;SDS011;9084;50.956;3.106;2023-08-06T07:08:13;2.78;;;1.30;;
17917;SDS011;9084;50.956;3.106;2023-08-06T07:10:41;6.22;;;1.33;;
17917;SDS011;9084;50.956;3.106;2023-08-06T07:13:09;2.33;;;1.15;;
17917;SDS011;9084;50.956;3.106;2023-08-06T07:15:35;3.67;;;1.42;;
17917;SDS011;9084;50.956;3.106;2023-08-06T07:18:01;3.25;;;1.30;;
17917;SDS011;9084;50.956;3.106;2023-08-06T07:20:27;3.38;;;1.60;;
17917;SDS011;9084;50.956;3.106;2023-08-06T07:22:56;5.18;;;1.50;;
17917;SDS011;9084;50.956;3.106;2023-08-06T07:25:25;3.90;;;0.93;;
17917;SDS011;9084;50.956;3.106;2023-08-06T07:27:50;5.00;;;1.50;;
17917;SDS011;9084;50.956;3.106;2023-08-06T07:30:16;4.80;;;1.75;;
17917;SDS011;9084;50.956;3.106;2023-08-06T07:32:44;4.70;;;1.55;;
17917;SDS011;9084;50.956;3.106;2023-08-06T07:35:10;3.65;;;1.70;;
17917;SDS011;9084;50.956;3.106;2023-08-06T07:37:38;3.72;;;1.80;;
17917;SDS011;9084;50.956;3.106;2023-08-06T07:40:04;5.93;;;1.70;;
17917;SDS011;9084;50.956;3.106;2023-08-06T07:42:30;3.97;;;1.38;;
17917;SDS011;9084;50.956;3.106;2023-08-06T07:44:58;4.05;;;1.70;;
17917;SDS011;9084;50.956;3.106;2023-08-06T07:47:24;3.78;;;1.48;;
17917;SDS011;9084;50.956;3.106;2023-08-06T07:49:50;4.70;;;1.50;;
17917;SDS011;9084;50.956;3.106;2023-08-06T07:52:15;6.93;;;1.67;;
17917;SDS011;9084;50.956;3.106;2023-08-06T07:54:41;6.15;;;1.83;;
17917;SDS011;9084;50.956;3.106;2023-08-06T07:57:09;3.30;;;1.60;;
17917;SDS011;9084;50.956;3.106;2023-08-06T07:59:35;4.00;;;1.30;;
17917;SDS011;9084;50.956;3.106;2023-08-06T08:02:01;6.10;;;1.55;;
17917;SDS011;9084;50.956;3.106;2023-08-06T08:04:26;4.43;;;1.30;;
17917;SDS011;9084;50.956;3.106;2023-08-06T08:06:52;3.92;;;1.35;;
17917;SDS011;9084;50.956;3.106;2023-08-06T08:09:22;6.47;;;1.95;;
17917;SDS011;9084;50.956;3.106;2023-08-06T08:11:50;3.20;;;1.20;;
17917;SDS011;9084;50.956;3.106;2023-08-06T08:14:17;2.75;;;1.17;;
17917;SDS011;9084;50.956;3.106;2023-08-06T08:16:45;3.90;;;1.45;;
17917;SDS011;9084;50.956;3.106;2023-08-06T08:19:11;4.38;;;1.23;;
17917;SDS011;9084;50.956;3.106;2023-08-06T08:21:36;2.30;;;1.20;;
17917;SDS011;9084;50.956;3.106;2023-08-06T08:24:03;4.07;;;1.58;;
17917;SDS011;9084;50.956;3.106;2023-08-06T08:26:31;3.00;;;1.20;;
17917;SDS011;9084;50.956;3.106;2023-08-06T08:28:57;2.75;;;1.23;;
17917;SDS011;9084;50.956;3.106;2023-08-06T08:31:23;1.65;;;1.00;;
17917;SDS011;9084;50.956;3.106;2023-08-06T08:33:48;5.95;;;1.52;;
17917;SDS011;9084;50.956;3.106;2023-08-06T08:36:14;3.15;;;1.33;;
17917;SDS011;9084;50.956;3.106;2023-08-06T08:38:42;1.90;;;1.25;;
17917;SDS011;9084;50.956;3.106;2023-08-06T08:41:09;4.35;;;1.60;;
17917;SDS011;9084;50.956;3.106;2023-08-06T08:43:35;5.45;;;1.65;;
17917;SDS011;9084;50.956;3.106;2023-08-06T08:46:01;3.00;;;1.52;;
17917;SDS011;9084;50.956;3.106;2023-08-06T08:48:29;5.05;;;1.70;;
17917;SDS011;9084;50.956;3.106;2023-08-06T08:50:57;6.10;;;1.63;;
17917;SDS011;9084;50.956;3.106;2023-08-06T08:53:23;4.00;;;1.40;;
17917;SDS011;9084;50.956;3.106;2023-08-06T08:55:51;5.13;;;1.90;;
17917;SDS011;9084;50.956;3.106;2023-08-06T08:58:20;5.53;;;1.52;;
17917;SDS011;9084;50.956;3.106;2023-08-06T09:00:48;3.75;;;1.77;;
17917;SDS011;9084;50.956;3.106;2023-08-06T09:03:19;5.75;;;1.80;;
17917;SDS011;9084;50.956;3.106;2023-08-06T09:05:45;2.72;;;1.48;;
17917;SDS011;9084;50.956;3.106;2023-08-06T09:08:23;2.50;;;1.17;;
17917;SDS011;9084;50.956;3.106;2023-08-06T09:10:55;4.38;;;1.30;;
17917;SDS011;9084;50.956;3.106;2023-08-06T09:13:22;6.63;;;1.60;;
17917;SDS011;9084;50.956;3.106;2023-08-06T09:15:48;4.22;;;1.85;;
17917;SDS011;9084;50.956;3.106;2023-08-06T09:18:16;6.82;;;1.60;;
17917;SDS011;9084;50.956;3.106;2023-08-06T09:20:51;4.07;;;1.42;;
17917;SDS011;9084;50.956;3.106;2023-08-06T09:23:19;4.72;;;1.55;;
17917;SDS011;9084;50.956;3.106;2023-08-06T09:25:48;3.05;;;1.02;;
17917;SDS011;9084;50.956;3.106;2023-08-06T09:28:15;3.40;;;1.20;;
17917;SDS011;9084;50.956;3.106;2023-08-06T09:30:43;3.90;;;1.45;;
17917;SDS011;9084;50.956;3.106;2023-08-06T09:33:14;4.93;;;1.63;;
17917;SDS011;9084;50.956;3.106;2023-08-06T09:35:49;7.80;;;1.58;;
17917;SDS011;9084;50.956;3.106;2023-08-06T09:38:15;3.72;;;1.48;;
17917;SDS011;9084;50.956;3.106;2023-08-06T09:40:40;7.00;;;1.48;;
17917;SDS011;9084;50.956;3.106;2023-08-06T09:43:06;4.47;;;1.40;;
17917;SDS011;9084;50.956;3.106;2023-08-06T09:48:06;4.22;;;1.65;;
17917;SDS011;9084;50.956;3.106;2023-08-06T09:50:34;4.45;;;1.65;;
17917;SDS011;9084;50.956;3.106;2023-08-06T09:53:02;4.50;;;1.55;;
17917;SDS011;9084;50.956;3.106;2023-08-06T09:55:28;4.63;;;1.50;;
17917;SDS011;9084;50.956;3.106;2023-08-06T09:57:54;7.30;;;1.65;;
17917;SDS011;9084;50.956;3.106;2023-08-06T10:00:20;3.17;;;1.38;;
17917;SDS011;9084;50.956;3.106;2023-08-06T10:02:50;4.63;;;1.70;;
17917;SDS011;9084;50.956;3.106;2023-08-06T10:05:19;4.88;;;2.00;;
17917;SDS011;9084;50.956;3.106;2023-08-06T10:07:46;3.70;;;1.50;;
17917;SDS011;9084;50.956;3.106;2023-08-06T10:10:14;3.50;;;1.75;;
17917;SDS011;9084;50.956;3.106;2023-08-06T10:12:40;4.85;;;1.65;;
17917;SDS011;9084;50.956;3.106;2023-08-06T10:15:15;6.97;;;1.80;;
17917;SDS011;9084;50.956;3.106;2023-08-06T10:17:50;6.32;;;1.85;;
17917;SDS011;9084;50.956;3.106;2023-08-06T10:20:23;3.15;;;1.58;;
17917;SDS011;9084;50.956;3.106;2023-08-06T10:23:04;3.78;;;1.60;;
17917;SDS011;9084;50.956;3.106;2023-08-06T10:25:34;5.82;;;1.80;;
17917;SDS011;9084;50.956;3.106;2023-08-06T10:28:09;5.32;;;1.88;;
17917;SDS011;9084;50.956;3.106;2023-08-06T10:30:48;3.67;;;1.60;;
17917;SDS011;9084;50.956;3.106;2023-08-06T10:33:15;3.97;;;1.58;;
17917;SDS011;9084;50.956;3.106;2023-08-06T10:35:47;4.63;;;1.80;;
17917;SDS011;9084;50.956;3.106;2023-08-06T10:38:21;2.60;;;1.40;;
17917;SDS011;9084;50.956;3.106;2023-08-06T10:45:57;5.13;;;2.17;;
17917;SDS011;9084;50.956;3.106;2023-08-06T10:48:40;4.10;;;1.60;;
17917;SDS011;9084;50.956;3.106;2023-08-06T10:51:10;2.72;;;1.48;;
17917;SDS011;9084;50.956;3.106;2023-08-06T10:53:37;3.17;;;1.45;;
17917;SDS011;9084;50.956;3.106;2023-08-06T10:56:16;4.72;;;1.60;;
17917;SDS011;9084;50.956;3.106;2023-08-06T10:58:42;5.70;;;1.85;;
17917;SDS011;9084;50.956;3.106;2023-08-06T11:01:10;5.55;;;1.80;;
17917;SDS011;9084;50.956;3.106;2023-08-06T11:03:37;4.30;;;1.65;;
17917;SDS011;9084;50.956;3.106;2023-08-06T11:06:03;4.82;;;1.63;;
17917;SDS011;9084;50.956;3.106;2023-08-06T11:08:34;4.00;;;1.77;;
17917;SDS011;9084;50.956;3.106;2023-08-06T11:11:16;3.70;;;1.73;;
17917;SDS011;9084;50.956;3.106;2023-08-06T11:13:43;4.55;;;1.67;;
17917;SDS011;9084;50.956;3.106;2023-08-06T11:16:16;3.97;;;1.75;;
17917;SDS011;9084;50.956;3.106;2023-08-06T11:18:43;4.30;;;1.58;;
17917;SDS011;9084;50.956;3.106;2023-08-06T11:21:10;2.88;;;1.27;;
17917;SDS011;9084;50.956;3.106;2023-08-06T11:23:37;4.50;;;2.03;;
17917;SDS011;9084;50.956;3.106;2023-08-06T11:26:03;2.75;;;1.48;;
17917;SDS011;9084;50.956;3.106;2023-08-06T11:28:29;3.33;;;1.50;;
17917;SDS011;9084;50.956;3.106;2023-08-06T11:31:00;4.68;;;1.45;;
17917;SDS011;9084;50.956;3.106;2023-08-06T11:33:28;3.75;;;1.55;;
17917;SDS011;9084;50.956;3.106;2023-08-06T11:35:55;3.35;;;1.50;;
17917;SDS011;9084;50.956;3.106;2023-08-06T11:38:27;2.47;;;1.33;;
17917;SDS011;9084;50.956;3.106;2023-08-06T11:40:54;3.72;;;1.38;;
17917;SDS011;9084;50.956;3.106;2023-08-06T11:43:20;4.65;;;1.70;;
17917;SDS011;9084;50.956;3.106;2023-08-06T11:45:47;5.63;;;1.77;;
17917;SDS011;9084;50.956;3.106;2023-08-06T11:48:13;3.80;;;1.30;;
17917;SDS011;9084;50.956;3.106;2023-08-06T11:50:39;4.07;;;1.70;;
17917;SDS011;9084;50.956;3.106;2023-08-06T11:53:05;6.00;;;1.17;;
17917;SDS011;9084;50.956;3.106;2023-08-06T11:55:31;3.95;;;1.50;;
17917;SDS011;9084;50.956;3.106;2023-08-06T11:57:58;4.30;;;1.73;;
17917;SDS011;9084;50.956;3.106;2023-08-06T12:00:27;3.38;;;1.27;;
17917;SDS011;9084;50.956;3.106;2023-08-06T12:02:54;3.63;;;1.60;;
17917;SDS011;9084;50.956;3.106;2023-08-06T12:05:23;4.75;;;1.33;;
17917;SDS011;9084;50.956;3.106;2023-08-06T12:07:56;6.68;;;2.08;;
17917;SDS011;9084;50.956;3.106;2023-08-06T12:10:26;2.63;;;1.33;;
17917;SDS011;9084;50.956;3.106;2023-08-06T12:12:53;7.20;;;1.90;;
17917;SDS011;9084;50.956;3.106;2023-08-06T12:15:21;4.65;;;1.83;;
17917;SDS011;9084;50.956;3.106;2023-08-06T12:17:47;2.97;;;1.35;;
17917;SDS011;9084;50.956;3.106;2023-08-06T12:20:13;5.10;;;1.45;;
17917;SDS011;9084;50.956;3.106;2023-08-06T12:22:39;2.85;;;1.25;;
17917;SDS011;9084;50.956;3.106;2023-08-06T12:25:08;5.25;;;1.42;;
17917;SDS011;9084;50.956;3.106;2023-08-06T12:27:38;3.35;;;1.35;;
17917;SDS011;9084;50.956;3.106;2023-08-06T12:30:05;4.43;;;1.50;;
17917;SDS011;9084;50.956;3.106;2023-08-06T12:32:31;4.50;;;1.60;;
17917;SDS011;9084;50.956;3.106;2023-08-06T12:34:58;4.50;;;1.25;;
17917;SDS011;9084;50.956;3.106;2023-08-06T12:37:24;5.45;;;1.40;;
17917;SDS011;9084;50.956;3.106;2023-08-06T12:39:50;5.32;;;1.60;;
17917;SDS011;9084;50.956;3.106;2023-08-06T12:42:18;3.33;;;1.40;;
17917;SDS011;9084;50.956;3.106;2023-08-06T12:44:44;3.22;;;1.42;;
17917;SDS011;9084;50.956;3.106;2023-08-06T12:47:10;3.58;;;1.27;;
17917;SDS011;9084;50.956;3.106;2023-08-06T12:49:38;3.40;;;1.40;;
17917;SDS011;9084;50.956;3.106;2023-08-06T12:52:03;3.33;;;1.20;;
17917;SDS011;9084;50.956;3.106;2023-08-06T12:54:31;4.07;;;1.30;;
17917;SDS011;9084;50.956;3.106;2023-08-06T12:57:01;4.45;;;1.45;;
17917;SDS011;9084;50.956;3.106;2023-08-06T12:59:27;3.92;;;1.50;;
17917;SDS011;9084;50.956;3.106;2023-08-06T13:01:53;2.92;;;1.23;;
17917;SDS011;9084;50.956;3.106;2023-08-06T13:04:19;3.35;;;1.13;;
17917;SDS011;9084;50.956;3.106;2023-08-06T13:06:44;3.70;;;1.58;;
17917;SDS011;9084;50.956;3.106;2023-08-06T13:09:12;3.97;;;1.73;;
17917;SDS011;9084;50.956;3.106;2023-08-06T13:11:41;3.15;;;1.40;;
17917;SDS011;9084;50.956;3.106;2023-08-06T13:14:11;3.70;;;1.38;;
17917;SDS011;9084;50.956;3.106;2023-08-06T13:16:38;5.93;;;1.42;;
17917;SDS011;9084;50.956;3.106;2023-08-06T13:19:05;3.58;;;1.38;;
17917;SDS011;9084;50.956;3.106;2023-08-06T13:21:32;3.20;;;1.55;;
17917;SDS011;9084;50.956;3.106;2023-08-06T13:24:00;4.15;;;1.27;;
17917;SDS011;9084;50.956;3.106;2023-08-06T13:26:28;2.60;;;1.30;;
17917;SDS011;9084;50.956;3.106;2023-08-06T13:28:57;2.50;;;1.40;;
17917;SDS011;9084;50.956;3.106;2023-08-06T13:31:23;4.32;;;1.60;;
17917;SDS011;9084;50.956;3.106;2023-08-06T13:33:49;5.63;;;1.20;;
17917;SDS011;9084;50.956;3.106;2023-08-06T13:36:18;3.05;;;1.45;;
17917;SDS011;9084;50.956;3.106;2023-08-06T13:38:43;3.83;;;1.45;;
17917;SDS011;9084;50.956;3.106;2023-08-06T13:41:12;3.80;;;1.38;;
17917;SDS011;9084;50.956;3.106;2023-08-06T13:43:40;2.78;;;1.02;;
17917;SDS011;9084;50.956;3.106;2023-08-06T13:46:05;4.80;;;1.33;;
17917;SDS011;9084;50.956;3.106;2023-08-06T13:48:36;1.13;;;0.85;;
17917;SDS011;9084;50.956;3.106;2023-08-06T13:51:02;1.98;;;1.02;;
17917;SDS011;9084;50.956;3.106;2023-08-06T13:53:27;4.57;;;1.40;;
17917;SDS011;9084;50.956;3.106;2023-08-06T13:55:57;4.82;;;0.90;;
17917;SDS011;9084;50.956;3.106;2023-08-06T13:58:23;5.90;;;1.45;;
17917;SDS011;9084;50.956;3.106;2023-08-06T14:00:50;2.40;;;0.90;;
17917;SDS011;9084;50.956;3.106;2023-08-06T14:03:18;4.15;;;1.35;;
17917;SDS011;9084;50.956;3.106;2023-08-06T14:05:44;3.00;;;1.17;;
17917;SDS011;9084;50.956;3.106;2023-08-06T14:08:14;1.42;;;1.10;;
17917;SDS011;9084;50.956;3.106;2023-08-06T14:10:43;3.30;;;1.17;;
17917;SDS011;9084;50.956;3.106;2023-08-06T14:13:09;3.67;;;1.20;;
17917;SDS011;9084;50.956;3.106;2023-08-06T14:15:37;1.92;;;0.80;;
17917;SDS011;9084;50.956;3.106;2023-08-06T14:18:05;3.13;;;1.00;;
17917;SDS011;9084;50.956;3.106;2023-08-06T14:20:33;2.92;;;0.77;;
17917;SDS011;9084;50.956;3.106;2023-08-06T14:23:04;1.60;;;0.95;;
17917;SDS011;9084;50.956;3.106;2023-08-06T14:25:31;2.05;;;0.77;;
17917;SDS011;9084;50.956;3.106;2023-08-06T14:27:57;2.83;;;1.15;;
17917;SDS011;9084;50.956;3.106;2023-08-06T14:30:23;4.05;;;1.17;;
17917;SDS011;9084;50.956;3.106;2023-08-06T14:32:49;2.25;;;1.15;;
17917;SDS011;9084;50.956;3.106;2023-08-06T14:35:14;2.78;;;1.10;;
17917;SDS011;9084;50.956;3.106;2023-08-06T14:37:40;2.08;;;0.93;;
17917;SDS011;9084;50.956;3.106;2023-08-06T14:40:09;4.65;;;1.45;;
17917;SDS011;9084;50.956;3.106;2023-08-06T14:42:38;2.25;;;0.90;;
17917;SDS011;9084;50.956;3.106;2023-08-06T14:45:04;3.33;;;0.90;;
17917;SDS011;9084;50.956;3.106;2023-08-06T14:47:32;2.42;;;0.77;;
17917;SDS011;9084;50.956;3.106;2023-08-06T14:49:58;1.52;;;0.90;;
17917;SDS011;9084;50.956;3.106;2023-08-06T14:52:25;2.78;;;1.17;;
17917;SDS011;9084;50.956;3.106;2023-08-06T14:54:51;2.65;;;1.10;;
17917;SDS011;9084;50.956;3.106;2023-08-06T14:57:17;2.03;;;1.10;;
17917;SDS011;9084;50.956;3.106;2023-08-06T14:59:43;5.28;;;1.05;;
17917;SDS011;9084;50.956;3.106;2023-08-06T15:02:08;4.72;;;1.20;;
17917;SDS011;9084;50.956;3.106;2023-08-06T15:04:36;2.40;;;0.82;;
17917;SDS011;9084;50.956;3.106;2023-08-06T15:07:02;2.45;;;1.00;;
17917;SDS011;9084;50.956;3.106;2023-08-06T15:09:28;2.55;;;1.10;;
17917;SDS011;9084;50.956;3.106;2023-08-06T15:11:54;2.90;;;1.00;;
17917;SDS011;9084;50.956;3.106;2023-08-06T15:14:19;2.97;;;1.00;;
17917;SDS011;9084;50.956;3.106;2023-08-06T15:16:46;3.35;;;1.63;;
17917;SDS011;9084;50.956;3.106;2023-08-06T15:19:12;1.15;;;1.00;;